createdAt,value
2023-02-02T00:02:56.620Z,94.6
2023-02-02T00:09:24.805Z,94.5
2023-02-02T00:21:50.475Z,95.1
2023-02-02T00:34:42.094Z,95.5
2023-02-02T00:41:11.054Z,95.3
2023-02-02T00:47:33.610Z,95.7
2023-02-02T00:54:27.379Z,96
2023-02-02T01:07:05.443Z,95
2023-02-02T01:19:55.471Z,95.5
2023-02-02T01:26:05.015Z,95.2
2023-02-02T01:38:29.565Z,97.7
2023-02-02T01:44:46.875Z,97.6
2023-02-02T01:51:23.249Z,98.5
2023-02-02T01:57:17.636Z,98.2
2023-02-02T02:03:57.823Z,98.5
2023-02-02T02:11:31.728Z,99.3
2023-02-02T02:17:31.686Z,100
2023-02-02T02:23:33.310Z,99.6
2023-02-02T02:35:39.260Z,100
2023-02-02T02:41:32.459Z,100
2023-02-02T02:47:37.239Z,100
2023-02-02T02:53:39.429Z,100
2023-02-02T02:59:47.759Z,100
2023-02-02T03:05:50.988Z,100
2023-02-02T03:12:23.162Z,100
2023-02-02T03:18:29.178Z,99.6
2023-02-02T03:24:58.874Z,99.2
2023-02-02T03:31:09.320Z,99
2023-02-02T03:37:13.760Z,100
2023-02-02T03:43:25.055Z,100
2023-02-02T03:49:25.436Z,100
2023-02-02T03:55:22.693Z,100
2023-02-02T04:01:40.788Z,100
2023-02-02T04:08:00.803Z,100
2023-02-02T04:20:47.428Z,100
2023-02-02T04:27:17.138Z,100
2023-02-02T04:33:25.373Z,100
2023-02-02T04:53:08.889Z,100
2023-02-02T04:59:41.127Z,100
2023-02-02T05:05:34.303Z,100
2023-02-02T05:30:40.294Z,100
2023-02-02T05:36:31.016Z,100
2023-02-02T05:42:21.986Z,100
2023-02-02T05:48:13.525Z,100
2023-02-02T05:54:05.154Z,100
2023-02-02T05:59:55.942Z,100
2023-02-02T06:05:49.043Z,100
2023-02-02T06:11:40.186Z,100
2023-02-02T06:17:31.319Z,100
2023-02-02T06:23:22.451Z,100
2023-02-02T06:29:12.675Z,100
2023-02-02T06:35:03.575Z,100
2023-02-02T06:40:55.548Z,100
2023-02-02T06:46:47.361Z,100
2023-02-02T06:52:37.729Z,100
2023-02-02T06:58:28.421Z,100
2023-02-02T07:04:20.348Z,100
2023-02-02T07:11:16.462Z,100
2023-02-02T07:17:04.859Z,100
2023-02-02T07:22:57.485Z,100
2023-02-02T07:28:48.351Z,100
2023-02-02T07:34:39.729Z,100
2023-02-02T07:40:30.709Z,100
2023-02-02T07:46:21.512Z,100
2023-02-02T07:52:12.870Z,100
2023-02-02T07:58:03.800Z,100
2023-02-02T08:03:56.969Z,100
2023-02-02T08:09:49.310Z,100
2023-02-02T08:15:41.129Z,100
2023-02-02T08:21:46.322Z,100
2023-02-02T08:27:40.317Z,100
2023-02-02T08:33:30.238Z,100
2023-02-02T08:39:20.186Z,100
2023-02-02T08:46:15.177Z,100
2023-02-02T08:52:05.272Z,100
2023-02-02T08:57:56.945Z,100
2023-02-02T09:03:48.667Z,100
2023-02-02T09:09:39.637Z,100
2023-02-02T09:15:33.025Z,100
2023-02-02T09:21:24.362Z,100
2023-02-02T09:27:14.961Z,100
2023-02-02T09:33:06.955Z,100
2023-02-02T09:38:56.529Z,100
2023-02-02T09:44:46.712Z,100
2023-02-02T09:50:36.969Z,100
2023-02-02T09:56:29.084Z,100
2023-02-02T10:02:18.363Z,100
2023-02-02T10:08:07.942Z,100
2023-02-02T10:14:01.687Z,100
2023-02-02T10:19:52.484Z,100
2023-02-02T10:25:42.661Z,100
2023-02-02T10:31:34.377Z,100
2023-02-02T10:37:24.932Z,100
2023-02-02T10:43:14.581Z,100
2023-02-02T10:49:05.246Z,100
2023-02-02T10:55:02.879Z,100
2023-02-02T11:00:53.540Z,100
2023-02-02T11:06:45.026Z,100
2023-02-02T11:12:37.245Z,100
2023-02-02T11:18:29.542Z,100
2023-02-02T11:24:21.397Z,100
2023-02-02T11:30:10.833Z,100
2023-02-02T11:36:01.730Z,100
2023-02-02T11:41:52.183Z,99.7
2023-02-02T11:47:42.850Z,99.1
2023-02-02T11:53:33.033Z,97.1
2023-02-02T11:59:24.251Z,97.1
2023-02-02T12:05:13.783Z,97.7
2023-02-02T12:11:03.104Z,97.2
2023-02-02T12:16:53.485Z,96
2023-02-02T12:22:44.714Z,94.2
2023-02-02T12:28:37.685Z,94.1
2023-02-02T12:34:28.118Z,94.4
2023-02-02T12:40:17.628Z,93
2023-02-02T12:46:14.520Z,92.1
2023-02-02T12:52:04.832Z,92.8
2023-02-02T12:57:57.669Z,91
2023-02-02T13:03:48.223Z,90.9
2023-02-02T13:09:40.367Z,91.2
2023-02-02T13:15:31.278Z,89.7
2023-02-02T13:21:23.572Z,89.1
2023-02-02T13:27:14.544Z,89.1
2023-02-02T13:33:06.214Z,90.4
2023-02-02T13:38:56.691Z,89.6
2023-02-02T13:44:48.086Z,90.5
2023-02-02T13:50:39.665Z,90.2
2023-02-02T13:56:32.005Z,88.7
2023-02-02T14:02:23.162Z,89.4
2023-02-02T14:08:13.776Z,89.8
2023-02-02T14:14:04.556Z,89.4
2023-02-02T14:19:55.573Z,89.1
2023-02-02T14:25:46.098Z,89
2023-02-02T14:31:36.977Z,88.2
2023-02-02T14:37:28.012Z,88.7
2023-02-02T14:43:19.307Z,88.7
2023-02-02T14:49:09.640Z,88.1
2023-02-02T14:55:01.056Z,87.9
2023-02-02T15:00:51.745Z,88.3
2023-02-02T15:06:43.470Z,88.1
2023-02-02T15:12:34.677Z,87.4
2023-02-02T15:18:26.234Z,87.2
2023-02-02T15:24:19.090Z,86.4
2023-02-02T15:30:09.112Z,86.1
2023-02-02T15:36:03.208Z,87
2023-02-02T15:41:53.165Z,87
2023-02-02T15:47:44.423Z,86.3
2023-02-02T15:53:35.884Z,87
2023-02-02T15:59:26.461Z,86.1
2023-02-02T16:05:16.881Z,86.1
2023-02-02T16:11:06.953Z,85.9
2023-02-02T16:16:57.347Z,85.5
2023-02-02T16:22:48.975Z,85.9
2023-02-02T16:28:39.837Z,85.8
2023-02-02T16:34:36.626Z,85.8
2023-02-02T16:40:27.282Z,85.9
2023-02-02T16:46:17.490Z,85.6
2023-02-02T16:52:08.619Z,86
2023-02-02T16:57:58.911Z,85.8
2023-02-02T17:03:51.238Z,85.8
2023-02-02T17:09:41.573Z,85.8
2023-02-02T17:15:33.444Z,86.2
2023-02-02T17:21:25.686Z,86.3
2023-02-02T17:27:19.686Z,86.6
2023-02-02T17:33:10.424Z,86.4
2023-02-02T17:39:02.831Z,86.6
2023-02-02T17:44:54.149Z,86.9
2023-02-02T17:50:44.082Z,87
2023-02-02T17:56:35.941Z,87
2023-02-02T18:02:26.838Z,86.9
2023-02-02T18:08:17.609Z,86.9
2023-02-02T18:14:09.598Z,86.8
2023-02-02T18:20:01.288Z,86.9
2023-02-02T18:25:50.271Z,87
2023-02-02T18:31:43.635Z,87.4
2023-02-02T18:37:33.314Z,87.4
2023-02-02T18:43:23.561Z,87.5
2023-02-02T18:49:12.543Z,87.9
2023-02-02T18:55:04.412Z,88.5
2023-02-02T19:00:54.582Z,88.7
2023-02-02T19:06:45.070Z,89.1
2023-02-02T19:12:34.562Z,89.3
2023-02-02T19:18:25.285Z,90.3
2023-02-02T19:24:16.307Z,90.5
2023-02-02T19:30:07.874Z,91.1
2023-02-02T19:35:58.589Z,91.3
2023-02-02T19:41:48.868Z,91.3
2023-02-02T19:47:39.134Z,91.4
2023-02-02T19:53:28.614Z,91.6
2023-02-02T19:59:19.273Z,92.1
2023-02-02T20:05:09.502Z,91.9
2023-02-02T20:11:01.491Z,91.9
2023-02-02T20:16:52.601Z,92.8
2023-02-02T20:22:44.753Z,93
2023-02-02T20:28:35.454Z,93.3
2023-02-02T20:34:26.023Z,93.4
2023-02-02T20:40:17.352Z,93.7
2023-02-02T20:46:09.123Z,93.3
2023-02-02T20:52:00.320Z,93.3
2023-02-02T20:57:49.826Z,93.1
2023-02-02T21:03:40.292Z,92.9
2023-02-02T21:09:30.194Z,92.8
2023-02-02T21:15:20.251Z,92.6
2023-02-02T21:21:10.734Z,92.5
2023-02-02T21:27:01.020Z,92.6
2023-02-02T21:32:51.244Z,92.5
2023-02-02T21:38:41.955Z,92.3
2023-02-02T21:44:32.534Z,92.2
2023-02-02T21:50:25.087Z,92.4
2023-02-02T21:56:17.200Z,92.5
2023-02-02T22:02:07.853Z,93.1
2023-02-02T22:08:02.599Z,94.6
2023-02-02T22:13:52.630Z,94.2
2023-02-02T22:19:43.180Z,95.1
2023-02-02T22:25:32.909Z,95.3
2023-02-02T22:31:22.954Z,97.1
2023-02-02T22:37:13.181Z,100
2023-02-02T22:43:02.699Z,100
2023-02-02T22:48:53.198Z,100
2023-02-02T22:54:45.302Z,100
2023-02-02T23:00:37.362Z,100
2023-02-02T23:06:27.584Z,100
2023-02-02T23:12:18.339Z,100
2023-02-02T23:18:08.330Z,100
2023-02-02T23:25:07.608Z,99.9
2023-02-02T23:30:56.433Z,99.9
2023-02-02T23:36:47.662Z,99.5
2023-02-02T23:42:37.785Z,99
2023-02-02T23:48:28.608Z,98.3
2023-02-02T23:54:20.101Z,97.7
